Time;durP1;ratioP1;P1;durP2;ratioP2;P2;SDS_P1;SDS_P2;PMS_P1;PMS_P2;Temp;Humidity;BMP_temperature;BMP_pressure;BME280_temperature;BME280_humidity;BME280_pressure;Samples;Min_cycle;Max_cycle;Signal;HPM_P1;HPM_P2
2023/09/18 00:02:41;;;;;;;;;;;;;;;23.49;58.02;100669.16;5443226;32;33952;-68
2023/09/18 00:05:45;;;;;;;14.63;7.78;;;;;;;23.55;57.92;100675.81;5467068;32;34219;-70
2023/09/18 00:08:48;;;;;;;14.20;7.60;;;;;;;23.37;58.08;100664.88;5461383;32;33953;-70
2023/09/18 00:11:51;;;;;;;10.38;6.70;;;;;;;23.57;57.74;100670.28;5462033;32;33895;-67
2023/09/18 00:14:53;;;;;;;11.88;7.37;;;;;;;23.37;58.37;100664.88;5462150;32;34032;-71
2023/09/18 00:17:56;;;;;;;12.90;7.32;;;;;;;22.85;60.36;100655.13;5459352;32;35527;-68
2023/09/18 00:20:58;;;;;;;14.50;7.30;;;;;;;23.64;57.75;100650.03;5462713;32;34050;-67
2023/09/18 00:24:02;;;;;;;13.82;6.93;;;;;;;23.34;58.04;100651.75;5471414;32;35156;-71
2023/09/18 00:27:05;;;;;;;12.35;7.15;;;;;;;23.41;58.02;100654.72;5463607;32;34050;-69
2023/09/18 00:30:07;;;;;;;;;;;;;;;23.43;58.00;100648.22;5462097;32;34012;-71
2023/09/18 00:33:10;;;;;;;11.25;7.40;;;;;;;23.51;57.57;100656.47;5463822;32;34073;-72
2023/09/18 00:36:12;;;;;;;;;;;;;;;23.37;58.00;100645.25;5447734;32;34121;-69
2023/09/18 00:39:15;;;;;;;10.75;6.60;;;;;;;23.68;56.76;100652.28;5448230;32;34072;-70
2023/09/18 00:42:17;;;;;;;12.10;7.60;;;;;;;23.51;57.27;100645.75;5450494;32;34782;-70
2023/09/18 00:45:20;;;;;;;11.18;7.37;;;;;;;22.95;59.26;100648.03;5447372;32;33912;-67
2023/09/18 00:48:23;;;;;;;10.18;6.72;;;;;;;22.63;60.37;100646.28;5465772;32;35294;-70
2023/09/18 00:51:26;;;;;;;16.05;7.72;;;;;;;23.39;57.97;100645.97;5458000;32;34147;-67
2023/09/18 00:54:28;;;;;;;12.10;7.65;;;;;;;23.34;57.79;100642.84;5467232;32;35260;-68
2023/09/18 00:57:31;;;;;;;12.90;7.12;;;;;;;22.22;61.89;100646.22;5462997;32;35279;-70
2023/09/18 01:00:33;;;;;;;11.90;7.30;;;;;;;22.82;59.34;100648.22;5475626;32;33860;-68
2023/09/18 01:03:36;;;;;;;11.68;7.12;;;;;;;23.38;57.75;100646.94;5478584;32;34120;-69
2023/09/18 01:06:38;;;;;;;;;;;;;;;23.01;59.12;100644.84;5450658;32;33873;-68
2023/09/18 01:09:41;;;;;;;11.10;7.73;;;;;;;22.29;61.61;100650.13;5468880;32;34223;-71
2023/09/18 01:12:45;;;;;;;13.50;7.55;;;;;;;22.07;63.43;100645.66;5460965;32;35263;-69
2023/09/18 01:15:56;;;;;;;13.73;8.23;;;;;;;21.66;65.46;100647.25;5467678;32;34031;-69
2023/09/18 01:18:58;;;;;;;14.75;8.73;;;;;;;22.13;63.94;100647.88;5481210;32;34160;-68
2023/09/18 01:22:39;;;;;;;13.90;7.97;;;;;;;21.52;66.02;100650.19;5436921;32;33993;-69
2023/09/18 01:26:03;;;;;;;13.75;7.90;;;;;;;21.09;68.85;100649.09;5423805;32;34252;-71
2023/09/18 01:29:23;;;;;;;;;;;;;;;21.39;67.67;100650.34;5398826;32;34508;-68
2023/09/18 01:32:53;;;;;;;11.88;7.53;;;;;;;21.40;66.63;100635.12;5419928;32;36052;-68
2023/09/18 01:36:11;;;;;;;14.57;8.73;;;;;;;21.51;66.48;100646.69;5397833;32;33598;-68
2023/09/18 01:39:51;;;;;;;12.68;8.43;;;;;;;21.24;67.94;100640.81;5363728;32;34862;-68
2023/09/18 01:43:30;;;;;;;10.70;7.50;;;;;;;21.40;65.98;100645.84;5362697;32;33973;-68
2023/09/18 01:47:36;;;;;;;14.60;7.75;;;;;;;21.60;65.25;100643.25;5370954;32;34502;-68
2023/09/18 01:51:20;;;;;;;12.23;8.13;;;;;;;21.40;66.99;100640.50;5367812;32;35257;-68
2023/09/18 01:54:30;;;;;;;16.35;8.25;;;;;;;21.14;67.60;100642.53;5353411;32;32503;-68
2023/09/18 01:57:47;;;;;;;14.65;7.87;;;;;;;21.16;67.88;100637.91;5333665;32;33930;-69
2023/09/18 02:01:07;;;;;;;11.77;7.97;;;;;;;20.89;69.20;100641.78;5337786;32;32823;-70
2023/09/18 02:04:28;;;;;;;16.33;8.80;;;;;;;21.12;68.10;100639.12;5330660;32;35155;-67
2023/09/18 02:08:06;;;;;;;17.25;9.05;;;;;;;21.10;67.80;100637.41;5332218;32;35759;-70
2023/09/18 02:11:28;;;;;;;12.48;7.28;;;;;;;20.66;70.12;100650.72;5323554;32;34197;-67
2023/09/18 02:14:48;;;;;;;12.32;8.25;;;;;;;21.09;66.54;100643.75;5331040;32;34101;-67
2023/09/18 02:18:17;;;;;;;13.18;8.32;;;;;;;21.56;64.36;100635.59;5346847;32;32759;-71
2023/09/18 02:21:51;;;;;;;12.65;8.00;;;;;;;21.34;64.44;100642.69;5340647;32;35313;-68
2023/09/18 02:25:04;;;;;;;13.35;8.02;;;;;;;21.29;65.58;100638.66;5361603;32;34625;-69
2023/09/18 02:28:27;;;;;;;13.75;8.43;;;;;;;21.25;64.84;100643.38;5360179;32;37880;-69
2023/09/18 02:31:35;;;;;;;13.85;8.25;;;;;;;21.33;64.59;100651.69;5355446;32;35242;-68
2023/09/18 02:34:37;;;;;;;;;;;;;;;21.48;64.43;100643.38;5377008;32;34036;-67
2023/09/18 02:37:40;;;;;;;15.73;8.63;;;;;;;21.45;64.44;100646.31;5386243;32;35465;-69
2023/09/18 02:40:42;;;;;;;14.75;9.10;;;;;;;21.12;65.25;100639.97;5389428;32;34012;-69
2023/09/18 02:43:45;;;;;;;12.48;7.47;;;;;;;20.84;67.04;100654.66;5390526;32;34510;-68
2023/09/18 02:46:47;;;;;;;12.77;7.97;;;;;;;21.53;63.83;100650.06;5384677;32;35484;-69
2023/09/18 02:49:50;;;;;;;12.45;7.90;;;;;;;21.81;62.56;100650.50;5384323;32;35110;-70
2023/09/18 02:52:52;;;;;;;11.20;7.50;;;;;;;22.29;60.43;100652.81;5391370;32;34138;-69
2023/09/18 02:55:56;;;;;;;13.20;8.00;;;;;;;21.96;60.95;100643.91;5378971;32;33983;-67
2023/09/18 02:58:58;;;;;;;12.37;7.50;;;;;;;22.42;59.57;100650.78;5383574;32;33950;-70
2023/09/18 03:02:01;;;;;;;11.60;7.50;;;;;;;22.47;59.04;100648.53;5413621;32;34220;-67
2023/09/18 03:05:04;;;;;;;;;;;;;;;21.19;63.49;100653.69;5432870;32;35508;-69
2023/09/18 03:08:06;;;;;;;12.13;7.87;;;;;;;21.74;62.24;100657.31;5430120;32;34312;-69
2023/09/18 03:11:12;;;;;;;18.05;7.90;;;;;;;22.36;59.47;100646.78;5428296;32;35185;-68
2023/09/18 03:14:15;;;;;;;13.38;7.90;;;;;;;21.96;60.54;100653.72;5435132;32;34062;-70
2023/09/18 03:17:17;;;;;;;13.25;8.02;;;;;;;22.10;59.89;100646.31;5466227;32;33960;-71
2023/09/18 03:20:23;;;;;;;;;;;;;;;21.00;63.76;100654.31;5448682;32;34039;-68
2023/09/18 03:23:26;;;;;;;11.70;7.65;;;;;;;21.47;61.91;100634.53;5444225;32;34183;-70
2023/09/18 03:26:28;;;;;;;12.65;8.50;;;;;;;21.70;61.95;100637.13;5456864;32;34071;-70
2023/09/18 03:29:31;;;;;;;14.45;8.27;;;;;;;21.71;61.41;100633.50;5473486;32;33983;-67
2023/09/18 03:32:33;;;;;;;15.82;8.25;;;;;;;20.76;65.32;100641.03;5451156;32;34044;-69
2023/09/18 03:35:47;;;;;;;;;;;;;;;21.21;63.38;100641.06;5445495;32;34193;-71
2023/09/18 03:38:49;;;;;;;13.50;8.38;;;;;;;21.91;60.74;100630.03;5463748;32;34800;-70
2023/09/18 03:41:52;;;;;;;15.43;8.38;;;;;;;21.95;60.64;100635.97;5448831;32;33964;-68
2023/09/18 03:44:55;;;;;;;12.80;8.25;;;;;;;21.81;60.57;100626.41;5463032;32;34189;-71
2023/09/18 03:47:58;;;;;;;17.10;8.27;;;;;;;21.85;60.55;100627.88;5450874;32;35725;-68
2023/09/18 03:51:00;;;;;;;14.15;8.98;;;;;;;21.48;61.50;100632.69;5455865;32;37029;-68
2023/09/18 03:54:03;;;;;;;15.77;8.75;;;;;;;21.06;63.31;100633.31;5470292;32;34860;-68
2023/09/18 03:57:07;;;;;;;13.77;8.63;;;;;;;21.42;62.15;100634.03;5464995;32;35356;-69
2023/09/18 04:00:11;;;;;;;12.85;8.57;;;;;;;21.79;60.78;100626.53;5464662;32;34013;-70
2023/09/18 04:03:13;;;;;;;16.62;8.15;;;;;;;22.20;59.17;100629.47;5448688;32;34182;-70
2023/09/18 04:06:16;;;;;;;14.95;8.35;;;;;;;21.90;60.02;100623.00;5466461;32;34016;-71
2023/09/18 04:09:18;;;;;;;14.45;8.93;;;;;;;21.92;60.02;100621.03;5447036;32;34019;-68
2023/09/18 04:12:20;;;;;;;15.95;8.23;;;;;;;21.85;60.08;100620.69;5465567;32;35171;-68
2023/09/18 04:15:23;;;;;;;14.32;8.43;;;;;;;21.70;60.12;100618.41;5464225;32;34066;-70
2023/09/18 04:18:25;;;;;;;16.83;8.57;;;;;;;21.84;60.13;100615.47;5466459;32;35205;-69
2023/09/18 04:21:29;;;;;;;15.80;9.50;;;;;;;21.43;61.24;100616.16;5465700;32;35703;-68
2023/09/18 04:24:31;;;;;;;12.82;9.00;;;;;;;21.27;61.77;100621.88;5456163;32;35412;-68
2023/09/18 04:27:34;;;;;;;14.87;9.18;;;;;;;21.60;60.67;100624.53;5450627;32;34035;-69
2023/09/18 04:30:37;;;;;;;15.15;8.90;;;;;;;21.74;60.05;100618.03;5475604;32;34616;-69
2023/09/18 04:33:39;;;;;;;17.48;9.80;;;;;;;21.58;60.80;100613.13;5466858;32;34064;-68
2023/09/18 04:36:43;;;;;;;14.55;8.90;;;;;;;21.60;60.65;100618.31;5448980;32;35265;-70
2023/09/18 04:39:46;;;;;;;14.63;9.07;;;;;;;21.68;60.46;100607.00;5456712;32;34221;-69
2023/09/18 04:42:48;;;;;;;14.48;8.57;;;;;;;21.46;61.36;100614.09;5461341;32;35452;-71
2023/09/18 04:45:51;;;;;;;17.05;10.10;;;;;;;21.53;61.14;100620.66;5467441;32;34065;-70
2023/09/18 04:48:53;;;;;;;17.52;9.20;;;;;;;20.83;63.14;100626.22;5438411;32;34160;-68
2023/09/18 04:51:56;;;;;;;13.10;9.25;;;;;;;20.65;64.10;100628.50;5446863;32;35249;-70
2023/09/18 04:54:59;;;;;;;16.12;9.70;;;;;;;21.76;60.35;100623.25;5442795;32;37210;-70
2023/09/18 04:58:01;;;;;;;16.48;10.05;;;;;;;21.64;60.55;100622.47;5465191;32;35308;-70
2023/09/18 05:01:06;;;;;;;15.40;8.95;;;;;;;21.38;61.06;100627.22;5462524;32;35040;-70
2023/09/18 05:04:09;;;;;;;19.27;9.85;;;;;;;21.25;61.85;100623.81;5452453;32;35774;-68
2023/09/18 05:07:11;;;;;;;18.10;9.68;;;;;;;21.52;61.15;100618.12;5461593;32;35294;-69
2023/09/18 05:10:14;;;;;;;14.90;8.85;;;;;;;21.46;61.22;100622.12;5443771;32;33953;-68
2023/09/18 05:13:16;;;;;;;14.93;9.02;;;;;;;21.22;62.52;100614.22;5462529;32;35651;-71
2023/09/18 05:16:18;;;;;;;15.63;9.55;;;;;;;21.72;60.32;100616.47;5447992;32;33900;-68
2023/09/18 05:19:21;;;;;;;15.15;9.05;;;;;;;22.58;57.51;100618.19;5466018;32;33888;-69
2023/09/18 05:22:23;;;;;;;14.45;8.73;;;;;;;22.49;58.03;100617.16;5452485;32;33996;-68
2023/09/18 05:25:38;;;;;;;12.48;8.20;;;;;;;23.13;55.80;100611.59;5462033;32;32446;-71
2023/09/18 05:28:40;;;;;;;13.90;8.32;;;;;;;23.20;55.13;100615.44;5468781;32;35298;-72
2023/09/18 05:31:43;;;;;;;18.85;8.93;;;;;;;23.98;52.52;100607.56;5455615;32;35417;-71
2023/09/18 05:34:45;;;;;;;15.23;8.70;;;;;;;24.19;52.18;100619.00;5465747;32;34616;-71
2023/09/18 05:37:47;;;;;;;8.93;6.03;;;;;;;23.84;52.88;100616.03;5455688;32;35212;-68
2023/09/18 05:40:50;;;;;;;9.60;6.53;;;;;;;24.84;50.84;100616.50;5447318;32;34967;-72
2023/09/18 05:43:56;;;;;;;12.50;7.53;;;;;;;25.03;50.48;100612.91;5451055;32;34242;-72
2023/09/18 05:46:59;;;;;;;12.98;7.65;;;;;;;25.20;48.70;100604.09;5446785;32;32318;-71
2023/09/18 05:50:06;;;;;;;;;;;;;;;25.10;49.12;100598.75;5458540;32;35514;-67
2023/09/18 05:53:09;;;;;;;13.00;7.97;;;;;;;25.56;47.32;100598.78;5441911;32;34395;-64
2023/09/18 05:56:17;;;;;;;12.63;7.65;;;;;;;25.20;48.35;100601.41;5460455;32;34214;-72
2023/09/18 05:59:20;;;;;;;14.20;8.27;;;;;;;25.32;47.51;100586.75;5454094;32;35373;-74
2023/09/18 06:02:23;;;;;;;12.05;7.93;;;;;;;25.19;48.38;100586.28;5443855;32;34131;-71
2023/09/18 06:05:25;;;;;;;12.80;7.95;;;;;;;25.70;46.90;100583.94;5457186;32;34222;-72
2023/09/18 06:08:30;;;;;;;14.18;8.15;;;;;;;25.52;47.59;100592.03;5438863;32;36261;-70
2023/09/18 06:11:32;;;;;;;13.55;8.25;;;;;;;26.08;45.80;100585.53;5442537;32;35735;-74
2023/09/18 06:14:34;;;;;;;15.85;8.18;;;;;;;26.00;45.88;100591.69;5456087;32;33929;-74
2023/09/18 06:17:42;;;;;;;11.75;7.70;;;;;;;26.13;45.77;100589.44;5447356;32;34065;-74
2023/09/18 06:20:44;;;;;;;12.13;7.65;;;;;;;27.14;43.02;100588.97;5456827;32;34059;-86
2023/09/18 06:23:47;;;;;;;13.15;8.25;;;;;;;26.38;44.56;100585.09;5455795;32;34164;-72
2023/09/18 06:26:51;;;;;;;14.93;8.10;;;;;;;26.03;45.84;100582.47;5442865;32;35726;-73
2023/09/18 06:29:53;;;;;;;12.75;7.62;;;;;;;27.31;43.06;100582.63;5442358;32;34529;-75
2023/09/18 06:32:55;;;;;;;11.98;8.00;;;;;;;25.17;47.92;100582.00;5461887;32;35161;-72
2023/09/18 06:35:59;;;;;;;11.65;7.50;;;;;;;27.23;43.14;100577.19;5443961;32;32816;-73
2023/09/18 06:39:03;;;;;;;12.82;7.57;;;;;;;28.02;41.47;100575.87;5432529;32;35421;-79
2023/09/18 06:42:09;;;;;;;17.58;8.07;;;;;;;27.63;42.25;100570.22;5442486;32;34183;-81
2023/09/18 06:45:14;;;;;;;14.55;7.45;;;;;;;27.08;42.83;100573.44;5453226;32;34172;-74
2023/09/18 06:48:17;;;;;;;11.30;7.15;;;;;;;28.62;39.93;100569.25;5440889;32;34439;-79
2023/09/18 06:51:19;;;;;;;11.93;7.32;;;;;;;28.25;40.53;100570.62;5433895;32;35260;-70
2023/09/18 06:54:47;;;;;;;14.27;8.40;;;;;;;28.49;39.59;100567.94;5440517;32;35152;-75
2023/09/18 06:57:51;;;;;;;12.98;7.62;;;;;;;29.44;38.08;100567.13;5454975;32;33860;-74
2023/09/18 07:00:57;;;;;;;13.27;7.60;;;;;;;29.76;37.15;100558.81;5448740;32;33279;-70
2023/09/18 07:03:59;;;;;;;14.38;7.57;;;;;;;29.34;38.16;100556.50;5437799;32;31870;-71
2023/09/18 07:07:03;;;;;;;10.98;7.62;;;;;;;29.92;36.84;100555.13;5448111;32;35922;-75
2023/09/18 07:10:10;;;;;;;12.35;7.57;;;;;;;29.20;38.22;100562.66;5440891;32;34092;-77
2023/09/18 07:13:23;;;;;;;16.65;7.22;;;;;;;29.80;37.23;100559.28;5439001;32;33923;-74
2023/09/18 07:16:30;;;;;;;11.27;7.40;;;;;;;29.93;36.79;100559.50;5453503;32;33967;-74
2023/09/18 07:19:35;;;;;;;11.73;7.28;;;;;;;29.93;36.80;100556.78;5455593;32;34297;-79
2023/09/18 07:22:38;;;;;;;11.32;7.55;;;;;;;30.03;36.84;100556.56;5450883;32;34036;-74
2023/09/18 07:25:43;;;;;;;19.80;7.47;;;;;;;27.62;41.56;100566.66;5449292;32;34171;-79
2023/09/18 07:28:46;;;;;;;13.57;6.97;;;;;;;29.22;38.89;100563.31;5450211;32;34287;-85
2023/09/18 07:31:48;;;;;;;11.05;7.57;;;;;;;29.69;37.28;100560.56;5436429;32;34851;-75
2023/09/18 07:34:51;;;;;;;10.30;6.80;;;;;;;30.99;35.01;100558.50;5453214;32;34443;-75
2023/09/18 07:37:53;;;;;;;12.75;7.10;;;;;;;29.29;38.42;100569.72;5447998;32;35024;-76
2023/09/18 07:40:56;;;;;;;10.98;7.35;;;;;;;29.41;38.43;100565.59;5452178;32;34047;-82
2023/09/18 07:43:59;;;;;;;10.70;7.28;;;;;;;31.10;35.14;100560.72;5448208;32;35564;-79
2023/09/18 07:47:02;;;;;;;14.20;7.35;;;;;;;31.74;33.79;100546.44;5421250;32;34080;-80
2023/09/18 07:50:06;;;;;;;11.10;7.10;;;;;;;31.53;34.11;100550.00;5448565;32;34159;-85
2023/09/18 07:53:13;;;;;;;14.93;6.78;;;;;;;31.30;34.93;100554.72;5456911;32;34218;-83
2023/09/18 07:56:18;;;;;;;11.05;6.75;;;;;;;32.15;33.12;100537.66;5435263;32;33925;-74
2023/09/18 07:59:20;;;;;;;13.90;7.60;;;;;;;31.90;33.58;100542.66;5424291;32;34186;-75
2023/09/18 08:02:23;;;;;;;10.65;7.30;;;;;;;30.53;35.38;100555.94;5444378;32;34066;-76
2023/09/18 08:05:28;;;;;;;11.73;7.78;;;;;;;31.37;34.47;100544.81;5450673;32;33111;-74
2023/09/18 08:08:32;;;;;;;10.88;7.47;;;;;;;30.65;35.70;100545.47;5443022;32;34282;-73
2023/09/18 08:11:36;;;;;;;11.77;7.82;;;;;;;27.54;41.78;100542.37;5454228;32;32904;-90
2023/09/18 08:14:38;;;;;;;13.88;7.95;;;;;;;28.39;40.86;100537.53;5438795;32;34717;-89
2023/09/18 08:17:42;;;;;;;11.68;8.35;;;;;;;27.73;42.19;100538.53;5437481;32;35158;-91
2023/09/18 08:20:44;;;;;;;13.38;8.38;;;;;;;27.98;41.74;100526.75;5453715;32;34165;-81
2023/09/18 08:23:47;;;;;;;12.48;7.55;;;;;;;28.35;41.25;100522.69;5440748;32;35356;-85
2023/09/18 08:26:49;;;;;;;11.90;8.07;;;;;;;28.88;40.11;100516.59;5427406;32;34215;-77
2023/09/18 08:29:52;;;;;;;15.02;7.10;;;;;;;28.73;40.46;100509.41;5439338;32;34556;-78
2023/09/18 08:32:54;;;;;;;14.40;7.95;;;;;;;30.23;37.38;100508.97;5436263;32;34093;-75
2023/09/18 08:35:57;;;;;;;10.63;6.90;;;;;;;30.83;35.98;100504.44;5445195;32;34646;-75
2023/09/18 08:38:59;;;;;;;12.35;7.00;;;;;;;31.30;35.35;100500.41;5446437;32;34082;-75
2023/09/18 08:42:07;;;;;;;11.52;7.25;;;;;;;31.77;34.87;100502.59;5430893;32;35222;-81
2023/09/18 08:45:10;;;;;;;12.45;7.25;;;;;;;32.06;33.87;100498.88;5434161;32;34076;-81
2023/09/18 08:48:13;;;;;;;14.05;6.53;;;;;;;33.05;32.48;100494.06;5418461;32;35507;-79
2023/09/18 08:51:16;;;;;;;12.15;7.30;;;;;;;32.15;34.12;100489.56;5447382;32;35542;-76
2023/09/18 08:54:18;;;;;;;16.17;7.10;;;;;;;32.79;32.63;100486.59;5442397;32;34053;-76
2023/09/18 08:57:21;;;;;;;15.60;7.20;;;;;;;33.22;32.07;100490.97;5434071;32;34043;-77
2023/09/18 09:00:24;;;;;;;10.02;6.82;;;;;;;34.12;30.80;100484.19;5441600;32;34507;-69
2023/09/18 09:03:27;;;;;;;10.77;7.22;;;;;;;33.53;31.43;100482.25;5450390;32;33952;-68
2023/09/18 09:06:29;;;;;;;11.15;7.03;;;;;;;34.74;29.57;100483.66;5434422;32;35526;-71
2023/09/18 09:09:32;;;;;;;10.13;6.85;;;;;;;34.32;30.43;100486.88;5427907;32;35123;-70
2023/09/18 09:12:57;;;;;;;10.90;6.97;;;;;;;35.05;29.14;100490.28;5445062;32;35195;-71
2023/09/18 09:16:00;;;;;;;12.82;6.70;;;;;;;33.86;30.78;100482.28;5440180;32;34958;-70
2023/09/18 09:19:03;;;;;;;11.98;6.85;;;;;;;33.61;31.44;100492.97;5441195;32;35268;-68
2023/09/18 09:22:05;;;;;;;9.77;7.03;;;;;;;35.08;29.13;100497.19;5442199;32;35622;-70
2023/09/18 09:25:31;;;;;;;11.02;7.15;;;;;;;33.40;31.87;100499.44;5427674;32;34110;-71
2023/09/18 09:28:33;;;;;;;9.90;5.85;;;;;;;35.06;29.43;100493.84;5410752;32;34968;-73
2023/09/18 09:31:37;;;;;;;9.77;7.05;;;;;;;36.13;27.93;100481.13;5421120;32;36378;-70
2023/09/18 09:34:41;;;;;;;13.45;7.45;;;;;;;36.07;27.34;100474.69;5423600;32;33859;-67
2023/09/18 09:37:43;;;;;;;10.93;7.35;;;;;;;34.14;30.46;100484.84;5405987;32;32775;-68
2023/09/18 09:40:45;;;;;;;12.27;7.50;;;;;;;32.34;33.22;100480.72;5411423;32;35076;-68
2023/09/18 09:43:51;;;;;;;13.00;7.37;;;;;;;32.41;33.41;100471.75;5409816;32;32345;-69
2023/09/18 09:46:53;;;;;;;11.57;6.65;;;;;;;34.38;30.27;100483.31;5410015;32;35707;-75
2023/09/18 09:49:56;;;;;;;13.20;7.75;;;;;;;34.80;29.30;100486.56;5409018;32;32847;-75
2023/09/18 09:52:59;;;;;;;10.98;7.05;;;;;;;35.41;28.42;100470.50;5374871;32;33961;-85
2023/09/18 09:56:01;;;;;;;14.20;7.20;;;;;;;35.51;28.06;100464.59;5361355;32;35312;-79
2023/09/18 09:59:08;;;;;;;13.95;7.05;;;;;;;34.27;30.29;100460.25;5381191;32;35931;-85
2023/09/18 10:02:14;;;;;;;10.93;7.10;;;;;;;34.88;29.19;100454.41;5365762;32;36531;-86
2023/09/18 10:05:17;;;;;;;10.60;7.25;;;;;;;33.00;32.62;100446.72;5352473;32;33975;-76
2023/09/18 10:08:26;;;;;;;13.48;6.70;;;;;;;35.78;28.12;100438.72;5369535;32;34761;-74
2023/09/18 10:11:32;;;;;;;10.02;6.97;;;;;;;35.98;27.79;100433.09;5350801;32;34524;-71
2023/09/18 10:14:35;;;;;;;11.48;7.15;;;;;;;37.08;26.00;100430.34;5374426;32;36030;-72
2023/09/18 10:17:59;;;;;;;11.35;7.12;;;;;;;36.80;26.33;100422.69;5374266;32;34172;-72
2023/09/18 10:21:33;;;;;;;9.15;6.53;;;;;;;37.00;25.92;100433.41;5374681;32;35882;-71
2023/09/18 10:24:37;;;;;;;11.63;7.12;;;;;;;36.86;26.34;100420.94;5379114;32;33670;-78
2023/09/18 10:27:40;;;;;;;12.30;6.35;;;;;;;36.59;26.77;100415.00;5387240;32;34063;-81
2023/09/18 10:30:43;;;;;;;10.05;6.72;;;;;;;37.49;25.34;100411.44;5378777;32;34131;-75
2023/09/18 10:33:48;;;;;;;11.00;6.85;;;;;;;36.89;26.01;100417.75;5368647;32;33983;-69
2023/09/18 10:36:53;;;;;;;12.20;7.20;;;;;;;36.51;26.52;100401.59;5372550;32;34072;-66
2023/09/18 10:39:59;;;;;;;11.63;6.95;;;;;;;35.85;27.47;100388.59;5360230;32;33882;-73
2023/09/18 10:43:03;;;;;;;11.18;7.53;;;;;;;35.27;28.33;100393.25;5387723;32;35014;-74
2023/09/18 10:46:06;;;;;;;11.57;7.30;;;;;;;34.18;30.02;100388.72;5353775;32;34276;-70
2023/09/18 10:49:09;;;;;;;11.45;7.40;;;;;;;33.84;30.56;100386.25;5370130;32;34470;-74
2023/09/18 10:52:15;;;;;;;14.32;8.13;;;;;;;32.60;32.83;100383.97;5376150;32;33763;-79
2023/09/18 10:55:18;;;;;;;11.32;7.43;;;;;;;32.17;33.56;100373.28;5372584;32;36653;-75
2023/09/18 10:58:25;;;;;;;10.90;7.68;;;;;;;32.25;33.66;100370.38;5391734;32;35937;-75
2023/09/18 11:01:29;;;;;;;11.02;7.43;;;;;;;31.69;34.77;100370.44;5390073;32;34128;-72
2023/09/18 11:04:31;;;;;;;11.23;7.70;;;;;;;32.02;33.89;100375.28;5388074;32;34109;-75
2023/09/18 11:07:34;;;;;;;13.27;8.05;;;;;;;31.42;34.84;100377.50;5398063;32;33825;-79
2023/09/18 11:10:37;;;;;;;12.80;7.35;;;;;;;30.75;36.59;100372.44;5371208;32;34162;-86
2023/09/18 11:13:47;;;;;;;12.00;7.87;;;;;;;31.42;35.21;100360.38;5399853;32;34491;-72
2023/09/18 11:16:50;;;;;;;13.70;7.32;;;;;;;31.18;35.96;100362.47;5386254;32;34074;-70
2023/09/18 11:20:17;;;;;;;11.52;7.60;;;;;;;30.87;36.52;100353.78;5388069;32;34516;-72
2023/09/18 11:23:34;;;;;;;12.55;7.70;;;;;;;30.94;36.76;100350.09;5373740;32;35655;-69
2023/09/18 11:26:40;;;;;;;15.45;7.62;;;;;;;31.81;34.40;100341.69;5388189;32;33130;-72
2023/09/18 11:29:46;;;;;;;13.48;8.07;;;;;;;31.98;34.44;100346.81;5373888;32;35774;-70
2023/09/18 11:32:48;;;;;;;10.98;7.62;;;;;;;31.26;35.63;100335.19;5368007;32;33968;-89
2023/09/18 11:35:52;;;;;;;14.68;7.35;;;;;;;32.01;34.47;100325.53;5391679;32;34362;-81
2023/09/18 11:39:03;;;;;;;13.98;7.65;;;;;;;31.85;34.86;100325.00;5383473;32;33947;-73
2023/09/18 11:42:11;;;;;;;12.20;7.45;;;;;;;32.29;34.11;100322.72;5376644;32;35753;-84
2023/09/18 11:45:17;;;;;;;12.10;7.85;;;;;;;33.31;31.72;100327.16;5377824;32;36329;-69
2023/09/18 11:48:20;;;;;;;11.02;7.47;;;;;;;32.18;33.33;100336.88;5382233;32;33128;-68
2023/09/18 11:51:23;;;;;;;15.85;7.80;;;;;;;32.78;32.48;100318.94;5373839;32;36258;-69
2023/09/18 11:54:27;;;;;;;17.25;8.23;;;;;;;32.54;33.11;100320.31;5377621;32;33954;-70
2023/09/18 11:57:35;;;;;;;12.65;8.18;;;;;;;32.70;32.08;100302.78;5364799;32;33893;-74
2023/09/18 12:00:45;;;;;;;14.05;8.02;;;;;;;32.25;32.84;100307.84;5391312;32;35504;-70
2023/09/18 12:03:55;;;;;;;10.90;7.87;;;;;;;31.71;33.86;100300.44;5388817;32;35424;-70
2023/09/18 12:06:59;;;;;;;12.70;7.90;;;;;;;30.94;35.42;100284.97;5382609;32;35803;-73
2023/09/18 12:10:06;;;;;;;11.30;7.62;;;;;;;31.91;33.36;100284.28;5366103;32;33819;-75
2023/09/18 12:13:11;;;;;;;10.93;8.10;;;;;;;31.59;34.00;100284.87;5362670;32;34482;-80
2023/09/18 12:16:14;;;;;;;12.77;8.10;;;;;;;32.11;33.05;100283.53;5372525;32;35736;-77
2023/09/18 12:19:18;;;;;;;12.35;8.13;;;;;;;31.99;32.98;100272.38;5376228;32;32367;-77
2023/09/18 12:22:27;;;;;;;11.68;8.00;;;;;;;30.43;36.11;100276.09;5416221;32;34787;-71
2023/09/18 12:25:30;;;;;;;11.23;8.20;;;;;;;31.59;33.92;100276.75;5422951;32;34769;-78
2023/09/18 12:28:36;;;;;;;11.48;7.85;;;;;;;31.56;33.56;100278.00;5423755;32;35359;-76
2023/09/18 12:31:38;;;;;;;11.82;8.02;;;;;;;31.00;34.70;100280.66;5406484;32;36032;-82
2023/09/18 12:34:42;;;;;;;14.23;8.13;;;;;;;31.50;33.74;100276.06;5425883;32;33965;-84
2023/09/18 12:38:01;;;;;;;12.30;7.85;;;;;;;31.39;34.09;100272.00;5400070;32;34759;-81
2023/09/18 12:41:09;;;;;;;12.43;7.72;;;;;;;31.19;34.05;100252.00;5424719;32;34092;-76
2023/09/18 12:44:16;;;;;;;13.43;7.97;;;;;;;30.08;35.94;100256.91;5431399;32;34836;-82
2023/09/18 12:47:25;;;;;;;13.80;7.80;;;;;;;30.64;34.76;100264.41;5412031;32;33869;-84
2023/09/18 12:50:30;;;;;;;13.07;7.57;;;;;;;31.15;33.58;100248.81;5416081;32;35625;-70
2023/09/18 12:53:41;;;;;;;11.55;8.07;;;;;;;30.99;33.87;100249.12;5419348;32;35212;-78
2023/09/18 12:56:47;;;;;;;13.20;7.62;;;;;;;31.18;33.75;100255.75;5417109;32;36367;-78
2023/09/18 12:59:51;;;;;;;14.13;8.00;;;;;;;30.80;35.05;100247.09;5410301;32;35734;-78
2023/09/18 13:02:56;;;;;;;17.37;7.78;;;;;;;31.35;34.10;100238.13;5406740;32;35567;-72
2023/09/18 13:06:15;;;;;;;13.27;7.43;;;;;;;31.07;33.87;100238.13;5419502;32;35538;-72
2023/09/18 13:09:23;;;;;;;10.32;7.40;;;;;;;30.72;34.33;100240.75;5424212;32;34138;-72
2023/09/18 13:12:59;;;;;;;12.23;7.18;;;;;;;31.41;32.80;100236.50;5403071;32;35561;-74
2023/09/18 13:16:05;;;;;;;11.43;7.15;;;;;;;32.03;32.04;100230.19;5425458;32;34224;-81
2023/09/18 13:19:07;;;;;;;11.93;8.13;;;;;;;34.23;28.48;100218.97;5410782;32;35341;-74
2023/09/18 13:22:09;;;;;;;14.75;7.53;;;;;;;34.58;27.84;100207.66;5416141;32;34158;-80
2023/09/18 13:25:19;;;;;;;11.65;7.05;;;;;;;33.44;29.49;100211.94;5424583;32;36644;-75
2023/09/18 13:28:23;;;;;;;11.75;7.70;;;;;;;32.48;31.01;100216.94;5425255;32;34286;-75
2023/09/18 13:31:26;;;;;;;11.55;7.80;;;;;;;31.19;33.15;100205.84;5428187;32;35161;-80
2023/09/18 13:34:29;;;;;;;11.65;7.37;;;;;;;30.90;33.95;100209.59;5404823;32;34099;-72
2023/09/18 13:37:33;;;;;;;12.30;8.07;;;;;;;31.07;33.77;100202.84;5429596;32;35196;-75
2023/09/18 13:40:36;;;;;;;11.70;7.12;;;;;;;31.17;33.52;100200.63;5418438;32;35504;-80
2023/09/18 13:43:38;;;;;;;10.55;7.40;;;;;;;31.26;33.60;100195.91;5404899;32;34023;-83
2023/09/18 13:46:41;;;;;;;13.02;7.40;;;;;;;31.07;33.92;100189.28;5426417;32;35487;-75
2023/09/18 13:49:43;;;;;;;14.43;7.55;;;;;;;30.64;34.44;100175.75;5411212;32;34331;-79
2023/09/18 13:52:45;;;;;;;13.70;7.30;;;;;;;30.83;34.30;100170.72;5409615;32;34132;-75
2023/09/18 13:55:48;;;;;;;11.12;7.30;;;;;;;30.44;34.93;100169.31;5417738;32;34936;-75
2023/09/18 13:58:52;;;;;;;14.48;7.82;;;;;;;30.49;34.88;100161.44;5414749;32;33885;-79
2023/09/18 14:01:55;;;;;;;13.55;7.80;;;;;;;30.40;35.21;100168.00;5413325;32;36064;-70
2023/09/18 14:04:57;;;;;;;18.70;8.25;;;;;;;30.29;35.21;100149.56;5446020;32;35414;-76
2023/09/18 14:08:00;;;;;;;19.35;8.45;;;;;;;30.17;35.23;100165.50;5460768;32;34393;-74
2023/09/18 14:11:04;;;;;;;11.10;7.95;;;;;;;29.97;35.25;100157.12;5456616;32;34163;-80
2023/09/18 14:14:07;;;;;;;10.68;7.43;;;;;;;29.74;35.74;100153.72;5455942;32;34288;-74
2023/09/18 14:17:10;;;;;;;16.15;8.40;;;;;;;29.89;35.40;100149.94;5442366;32;36443;-77
2023/09/18 14:20:12;;;;;;;11.02;7.72;;;;;;;29.80;35.78;100150.25;5452240;32;34465;-78